createdAt,value
2022-08-28T00:01:57.734Z,2.65
2022-08-28T00:04:24.698Z,1.30
2022-08-28T00:06:51.700Z,1.35
2022-08-28T00:09:19.251Z,1.13
2022-08-28T00:11:47.353Z,1.58
2022-08-28T00:14:15.135Z,1.00
2022-08-28T00:16:42.423Z,2.53
2022-08-28T00:19:11.165Z,1.50
2022-08-28T00:21:38.692Z,1.10
2022-08-28T00:24:06.140Z,1.40
2022-08-28T00:26:51.784Z,1.45
2022-08-28T00:29:18.711Z,2.55
2022-08-28T00:31:45.766Z,1.10
2022-08-28T00:34:13.020Z,1.63
2022-08-28T00:36:41.392Z,1.20
2022-08-28T00:39:09.768Z,1.20
2022-08-28T00:41:41.133Z,1.20
2022-08-28T00:44:14.394Z,1.20
2022-08-28T00:46:44.222Z,1.30
2022-08-28T00:49:13.354Z,1.10
2022-08-28T00:51:59.956Z,1.30
2022-08-28T00:54:30.404Z,2.40
2022-08-28T00:56:58.022Z,0.80
2022-08-28T00:59:26.271Z,1.30
2022-08-28T01:01:57.020Z,2.05
2022-08-28T01:04:26.172Z,0.90
2022-08-28T01:06:55.997Z,1.40
2022-08-28T01:09:30.584Z,1.92
2022-08-28T01:12:09.729Z,3.20
2022-08-28T01:14:39.384Z,1.35
2022-08-28T01:17:07.424Z,1.40
2022-08-28T01:19:41.451Z,1.10
2022-08-28T01:22:28.501Z,1.15
2022-08-28T01:25:01.482Z,2.53
2022-08-28T01:27:28.498Z,1.17
2022-08-28T01:29:55.674Z,1.20
2022-08-28T01:32:38.480Z,1.50
2022-08-28T01:35:10.499Z,1.20
2022-08-28T01:37:37.878Z,1.55
2022-08-28T01:40:07.181Z,1.20
2022-08-28T01:42:39.557Z,2.22
2022-08-28T01:45:11.427Z,2.35
2022-08-28T01:47:39.874Z,1.70
2022-08-28T01:50:09.324Z,2.95
2022-08-28T01:52:36.768Z,1.88
2022-08-28T01:55:05.983Z,1.30
2022-08-28T01:57:33.884Z,1.50
2022-08-28T02:00:00.841Z,2.03
2022-08-28T02:02:27.849Z,2.38
2022-08-28T02:04:54.686Z,1.15
2022-08-28T02:07:21.554Z,1.20
2022-08-28T02:09:48.418Z,1.30
2022-08-28T02:12:15.355Z,1.10
2022-08-28T02:14:42.262Z,2.45
2022-08-28T02:17:09.129Z,1.45
2022-08-28T02:19:36.157Z,0.90
2022-08-28T02:22:06.318Z,1.30
2022-08-28T02:24:33.297Z,1.20
2022-08-28T02:27:00.305Z,1.25
2022-08-28T02:29:27.712Z,1.65
2022-08-28T02:31:54.680Z,1.30
2022-08-28T02:34:21.669Z,1.10
2022-08-28T02:36:49.431Z,1.80
2022-08-28T02:39:16.432Z,1.52
2022-08-28T02:41:43.533Z,1.88
2022-08-28T02:44:10.455Z,1.23
2022-08-28T02:46:37.318Z,1.35
2022-08-28T02:49:04.209Z,1.42
2022-08-28T02:51:33.825Z,2.42
2022-08-28T02:54:01.632Z,1.60
2022-08-28T02:56:29.304Z,2.17
2022-08-28T02:58:56.601Z,1.50
2022-08-28T03:01:23.721Z,2.05
2022-08-28T03:03:50.894Z,1.55
2022-08-28T03:06:17.793Z,2.05
2022-08-28T03:08:45.357Z,1.42
2022-08-28T03:11:12.758Z,1.85
2022-08-28T03:13:39.820Z,1.52
2022-08-28T03:16:07.464Z,1.33
2022-08-28T03:18:34.519Z,1.40
2022-08-28T03:21:01.656Z,2.15
2022-08-28T03:23:28.641Z,1.48
2022-08-28T03:26:11.276Z,1.42
2022-08-28T03:28:50.026Z,2.65
2022-08-28T03:31:21.397Z,1.30
2022-08-28T03:33:49.238Z,1.38
2022-08-28T03:36:19.215Z,1.38
2022-08-28T03:38:46.208Z,1.20
2022-08-28T03:41:16.222Z,2.10
2022-08-28T03:43:43.427Z,1.20
2022-08-28T03:46:16.290Z,1.40
2022-08-28T03:48:44.954Z,1.40
2022-08-28T03:51:17.656Z,1.50
2022-08-28T03:53:45.344Z,1.50
2022-08-28T03:56:16.753Z,2.78
2022-08-28T03:58:43.854Z,1.52
2022-08-28T04:01:11.104Z,1.73
2022-08-28T04:03:38.078Z,1.55
2022-08-28T04:06:05.283Z,1.55
2022-08-28T04:08:32.217Z,1.77
2022-08-28T04:11:02.251Z,1.30
2022-08-28T04:13:29.930Z,1.45
2022-08-28T04:16:11.160Z,1.70
2022-08-28T04:18:41.435Z,1.40
2022-08-28T04:21:13.708Z,1.40
2022-08-28T04:23:45.417Z,2.17
2022-08-28T04:26:16.188Z,1.50
2022-08-28T04:28:44.154Z,1.60
2022-08-28T04:31:11.061Z,1.42
2022-08-28T04:33:39.027Z,1.35
2022-08-28T04:36:09.413Z,1.33
2022-08-28T04:38:43.690Z,1.50
2022-08-28T04:41:13.063Z,1.40
2022-08-28T04:43:40.301Z,1.50
2022-08-28T04:46:09.495Z,1.40
2022-08-28T04:48:36.810Z,1.30
2022-08-28T04:51:06.784Z,1.88
2022-08-28T04:53:33.644Z,1.50
2022-08-28T04:56:00.934Z,1.50
2022-08-28T04:58:28.324Z,1.60
2022-08-28T05:00:55.421Z,1.40
2022-08-28T05:03:23.577Z,2.28
2022-08-28T05:05:53.169Z,1.48
2022-08-28T05:08:23.159Z,1.27
2022-08-28T05:10:51.158Z,1.65
2022-08-28T05:13:19.432Z,1.40
2022-08-28T05:15:49.535Z,1.77
2022-08-28T05:18:18.703Z,1.75
2022-08-28T05:20:47.833Z,1.60
2022-08-28T05:23:16.510Z,1.48
2022-08-28T05:25:46.784Z,2.65
2022-08-28T05:28:14.924Z,1.40
2022-08-28T05:30:42.403Z,1.60
2022-08-28T05:33:10.711Z,2.35
2022-08-28T05:35:40.994Z,5.05
2022-08-28T05:38:08.857Z,5.63
2022-08-28T05:40:43.172Z,2.67
2022-08-28T05:43:11.095Z,3.15
2022-08-28T05:45:38.042Z,4.10
2022-08-28T05:48:05.214Z,3.17
2022-08-28T05:50:32.164Z,6.20
2022-08-28T05:53:00.178Z,1.50
2022-08-28T05:55:27.071Z,4.18
2022-08-28T05:57:53.925Z,2.28
2022-08-28T06:00:20.910Z,1.73
2022-08-28T06:02:47.727Z,2.95
2022-08-28T06:05:17.505Z,3.30
2022-08-28T06:07:44.581Z,6.78
2022-08-28T06:10:11.483Z,3.33
2022-08-28T06:12:38.444Z,1.50
2022-08-28T06:15:06.255Z,2.40
2022-08-28T06:17:33.097Z,1.58
2022-08-28T06:19:59.976Z,2.92
2022-08-28T06:22:26.852Z,2.03
2022-08-28T06:24:54.168Z,4.40
2022-08-28T06:27:21.103Z,4.40
2022-08-28T06:29:48.002Z,2.20
2022-08-28T06:32:14.983Z,1.60
2022-08-28T06:34:41.987Z,1.70
2022-08-28T06:37:10.157Z,1.50
2022-08-28T06:39:37.161Z,1.63
2022-08-28T06:42:05.827Z,1.90
2022-08-28T06:44:32.805Z,1.75
2022-08-28T06:47:00.625Z,5.50
2022-08-28T06:49:27.635Z,1.70
2022-08-28T06:51:56.403Z,1.70
2022-08-28T06:54:23.867Z,3.83
2022-08-28T06:56:52.684Z,3.70
2022-08-28T06:59:19.794Z,3.25
2022-08-28T07:01:46.698Z,1.55
2022-08-28T07:04:14.891Z,1.65
2022-08-28T07:06:47.111Z,1.80
2022-08-28T07:09:15.487Z,2.58
2022-08-28T07:11:46.915Z,2.17
2022-08-28T07:14:13.967Z,1.95
2022-08-28T07:16:41.573Z,3.22
2022-08-28T07:19:11.438Z,2.90
2022-08-28T07:21:41.985Z,4.35
2022-08-28T07:24:11.068Z,1.77
2022-08-28T07:26:38.305Z,2.20
2022-08-28T07:29:09.530Z,2.55
2022-08-28T07:31:39.083Z,2.35
2022-08-28T07:34:05.971Z,4.97
2022-08-28T07:36:32.979Z,3.08
2022-08-28T07:39:00.358Z,3.17
2022-08-28T07:41:30.307Z,7.95
2022-08-28T07:44:16.185Z,5.47
2022-08-28T07:46:44.370Z,2.70
2022-08-28T07:49:12.754Z,8.15
2022-08-28T07:51:39.746Z,4.72
2022-08-28T07:54:07.283Z,4.47
2022-08-28T07:56:40.966Z,4.22
2022-08-28T07:59:10.017Z,31.45
2022-08-28T08:01:40.177Z,13.85
2022-08-28T08:04:08.263Z,202.17
2022-08-28T08:06:37.382Z,404.33
2022-08-28T08:09:05.799Z,495.65
2022-08-28T08:11:33.613Z,344.83
2022-08-28T08:14:05.827Z,579.95
2022-08-28T08:16:39.324Z,451.42
2022-08-28T08:19:10.230Z,444.02
2022-08-28T08:24:05.619Z,466.20
2022-08-28T08:26:33.388Z,488.35
2022-08-28T08:29:01.292Z,471.13
2022-08-28T08:31:32.713Z,464.92
2022-08-28T08:34:03.120Z,459.27
2022-08-28T08:36:32.588Z,469.02
2022-08-28T08:39:00.529Z,422.70
2022-08-28T08:41:48.687Z,418.35
2022-08-28T08:44:34.055Z,415.40
2022-08-28T08:47:03.992Z,398.77
2022-08-28T08:49:36.270Z,397.25
2022-08-28T08:52:23.379Z,385.25
2022-08-28T08:55:06.577Z,372.92
2022-08-28T08:57:37.087Z,364.15
2022-08-28T09:00:15.061Z,361.02
2022-08-28T09:02:55.723Z,337.15
2022-08-28T09:05:28.760Z,340.35
2022-08-28T09:07:59.655Z,334.52
2022-08-28T09:10:39.071Z,311.67
2022-08-28T09:13:54.521Z,318.10
2022-08-28T09:16:30.147Z,289.50
2022-08-28T09:18:59.772Z,222.50
2022-08-28T09:21:30.675Z,170.77
2022-08-28T09:24:05.829Z,162.45
2022-08-28T09:26:34.274Z,131.55
2022-08-28T09:29:05.519Z,123.88
2022-08-28T09:31:41.581Z,119.50
2022-08-28T09:34:19.791Z,108.97
2022-08-28T09:36:47.266Z,100.72
2022-08-28T09:39:24.743Z,62.47
2022-08-28T09:42:34.368Z,38.35
2022-08-28T09:45:14.138Z,63.00
2022-08-28T09:47:56.709Z,57.08
2022-08-28T09:50:32.142Z,49.22
2022-08-28T09:53:09.816Z,40.42
2022-08-28T09:55:54.329Z,47.20
2022-08-28T09:58:22.601Z,40.55
2022-08-28T10:00:58.074Z,42.92
2022-08-28T10:04:05.020Z,46.28
2022-08-28T10:06:35.712Z,33.45
2022-08-28T10:09:11.262Z,34.25
2022-08-28T10:11:56.582Z,28.50
2022-08-28T10:14:41.553Z,25.65
2022-08-28T10:17:29.687Z,28.73
2022-08-28T10:20:13.141Z,33.45
2022-08-28T10:22:52.101Z,24.40
2022-08-28T10:25:22.106Z,20.45
2022-08-28T10:28:00.348Z,22.67
2022-08-28T10:30:28.592Z,16.48
2022-08-28T10:33:22.991Z,12.32
2022-08-28T10:35:57.685Z,9.35
2022-08-28T10:38:37.859Z,7.40
2022-08-28T10:41:34.368Z,8.48
2022-08-28T10:44:04.070Z,7.25
2022-08-28T10:46:41.099Z,7.93
2022-08-28T10:49:41.840Z,8.98
2022-08-28T10:52:13.723Z,6.82
2022-08-28T10:54:54.707Z,9.02
2022-08-28T10:57:47.502Z,8.43
2022-08-28T11:00:18.976Z,7.22
2022-08-28T11:02:50.396Z,6.57
2022-08-28T11:05:25.428Z,7.75
2022-08-28T11:07:59.203Z,10.40
2022-08-28T11:10:35.284Z,10.23
2022-08-28T11:13:03.992Z,8.52
2022-08-28T11:15:37.117Z,6.72
2022-08-28T11:18:16.529Z,7.70
2022-08-28T11:20:56.745Z,7.90
2022-08-28T11:23:41.263Z,10.55
2022-08-28T11:26:12.751Z,11.23
2022-08-28T11:28:47.835Z,12.77
2022-08-28T11:31:24.669Z,19.08
2022-08-28T11:33:59.213Z,17.42
2022-08-28T11:36:28.396Z,10.02
2022-08-28T11:38:55.713Z,10.57
2022-08-28T11:41:36.855Z,14.93
2022-08-28T11:47:16.563Z,17.73
2022-08-28T11:49:45.118Z,14.30
2022-08-28T11:52:44.385Z,10.23
2022-08-28T11:55:22.698Z,11.93
2022-08-28T11:57:52.472Z,10.02
2022-08-28T12:00:33.873Z,9.18
2022-08-28T12:03:06.918Z,5.63
2022-08-28T12:05:33.846Z,14.80
2022-08-28T12:08:03.967Z,6.05
2022-08-28T12:10:34.711Z,6.53
2022-08-28T12:13:04.273Z,9.10
2022-08-28T12:15:31.572Z,8.55
2022-08-28T12:18:15.844Z,5.00
2022-08-28T12:20:51.539Z,8.88
2022-08-28T12:23:30.277Z,6.53
2022-08-28T12:26:04.304Z,6.20
2022-08-28T12:28:54.327Z,4.93
2022-08-28T12:32:04.040Z,6.05
2022-08-28T12:34:58.695Z,6.45
2022-08-28T12:37:51.960Z,5.22
2022-08-28T12:40:26.809Z,5.30
2022-08-28T12:43:02.981Z,4.68
2022-08-28T12:45:49.372Z,4.97
2022-08-28T12:48:53.553Z,4.65
2022-08-28T12:51:25.040Z,4.72
2022-08-28T12:53:56.833Z,7.75
2022-08-28T12:56:33.811Z,7.30
2022-08-28T12:59:37.579Z,5.00
2022-08-28T13:02:50.800Z,5.95
2022-08-28T13:05:43.172Z,5.18
2022-08-28T13:08:28.654Z,6.65
2022-08-28T13:10:56.200Z,6.32
2022-08-28T13:13:29.838Z,6.00
2022-08-28T13:15:57.214Z,6.70
2022-08-28T13:18:46.207Z,6.88
2022-08-28T13:21:33.607Z,4.85
2022-08-28T13:24:22.212Z,5.43
2022-08-28T13:26:59.627Z,4.10
2022-08-28T13:29:27.126Z,4.97
2022-08-28T13:32:03.132Z,4.60
2022-08-28T13:34:33.033Z,3.67
2022-08-28T13:37:04.167Z,4.60
2022-08-28T13:39:36.570Z,4.93
2022-08-28T13:42:10.485Z,4.95
2022-08-28T13:44:49.159Z,3.85
2022-08-28T13:47:17.074Z,3.92
2022-08-28T13:49:44.173Z,4.28
2022-08-28T13:52:11.852Z,5.97
2022-08-28T13:54:43.509Z,5.38
2022-08-28T13:57:10.840Z,5.40
2022-08-28T13:59:37.931Z,3.40
2022-08-28T14:02:26.797Z,3.90
2022-08-28T14:04:54.054Z,5.72
2022-08-28T14:07:21.045Z,4.03
2022-08-28T14:09:50.911Z,3.58
2022-08-28T14:12:21.255Z,3.70
2022-08-28T14:14:54.990Z,4.68
2022-08-28T14:17:22.259Z,4.53
2022-08-28T14:19:51.039Z,5.78
2022-08-28T14:22:18.179Z,7.60
2022-08-28T14:24:45.314Z,11.85
2022-08-28T14:27:12.410Z,12.00
2022-08-28T14:29:39.578Z,30.60
2022-08-28T14:32:06.620Z,10.55
2022-08-28T14:34:34.099Z,4.30
2022-08-28T14:37:02.007Z,5.32
2022-08-28T14:39:29.270Z,3.40
2022-08-28T14:41:56.407Z,3.30
2022-08-28T14:44:25.274Z,5.70
2022-08-28T14:46:57.017Z,4.13
2022-08-28T14:49:25.767Z,4.15
2022-08-28T14:51:54.567Z,4.70
2022-08-28T14:54:24.534Z,3.22
2022-08-28T14:56:54.005Z,3.30
2022-08-28T14:59:24.962Z,3.38
2022-08-28T15:01:54.302Z,5.30
2022-08-28T15:04:23.903Z,2.90
2022-08-28T15:06:56.373Z,2.78
2022-08-28T15:09:23.435Z,2.75
2022-08-28T15:11:50.511Z,2.92
2022-08-28T15:14:17.823Z,2.63
2022-08-28T15:16:48.019Z,3.55
2022-08-28T15:19:18.325Z,5.23
2022-08-28T15:21:50.726Z,2.60
2022-08-28T15:24:21.988Z,2.28
2022-08-28T15:26:50.602Z,2.95
2022-08-28T15:29:21.558Z,3.15
2022-08-28T15:31:51.243Z,2.45
2022-08-28T15:34:22.874Z,6.47
2022-08-28T15:36:55.232Z,3.85
2022-08-28T15:39:49.127Z,3.90
2022-08-28T15:42:17.535Z,6.53
2022-08-28T15:44:45.595Z,13.20
2022-08-28T15:47:14.368Z,7.43
2022-08-28T15:49:48.786Z,12.23
2022-08-28T15:52:18.605Z,6.05
2022-08-28T15:54:47.341Z,14.80
2022-08-28T15:57:14.305Z,7.18
2022-08-28T15:59:48.710Z,3.97
2022-08-28T16:02:23.088Z,2.22
2022-08-28T16:04:50.481Z,2.40
2022-08-28T16:07:18.581Z,5.90
2022-08-28T16:09:45.575Z,7.03
2022-08-28T16:12:12.731Z,5.85
2022-08-28T16:14:40.740Z,3.55
2022-08-28T16:17:10.608Z,6.38
2022-08-28T16:19:43.710Z,4.85
2022-08-28T16:22:12.568Z,11.27
2022-08-28T16:24:39.609Z,5.50
2022-08-28T16:27:09.528Z,9.32
2022-08-28T16:29:40.296Z,5.65
2022-08-28T16:32:11.830Z,3.03
2022-08-28T16:34:40.059Z,4.90
2022-08-28T16:37:08.036Z,2.53
2022-08-28T16:39:35.956Z,5.45
2022-08-28T16:42:03.316Z,3.50
2022-08-28T16:44:30.403Z,3.80
2022-08-28T16:46:57.582Z,3.30
2022-08-28T16:49:25.083Z,4.70
2022-08-28T16:51:52.233Z,6.90
2022-08-28T16:54:21.807Z,4.30
2022-08-28T16:56:49.335Z,4.75
2022-08-28T16:59:23.517Z,3.22
2022-08-28T17:01:53.037Z,4.30
2022-08-28T17:04:22.048Z,7.60
2022-08-28T17:06:49.591Z,6.65
2022-08-28T17:09:16.815Z,3.88
2022-08-28T17:11:51.667Z,4.05
2022-08-28T17:14:21.674Z,3.30
2022-08-28T17:16:49.905Z,2.85
2022-08-28T17:19:17.659Z,5.28
2022-08-28T17:22:03.508Z,2.92
2022-08-28T17:24:31.397Z,3.72
2022-08-28T17:27:00.933Z,4.80
2022-08-28T17:29:31.944Z,4.18
2022-08-28T17:31:58.934Z,4.40
2022-08-28T17:34:30.120Z,3.90
2022-08-28T17:36:58.008Z,9.90
2022-08-28T17:39:26.004Z,7.95
2022-08-28T17:41:53.166Z,2.67
2022-08-28T17:44:20.455Z,2.47
2022-08-28T17:46:49.033Z,8.63
2022-08-28T17:49:16.009Z,5.90
2022-08-28T17:51:44.420Z,3.78
2022-08-28T17:54:18.233Z,2.35
2022-08-28T17:56:45.706Z,2.90
2022-08-28T17:59:13.543Z,11.60
2022-08-28T18:02:18.125Z,4.07
2022-08-28T18:04:45.166Z,6.07
2022-08-28T18:07:12.352Z,5.50
2022-08-28T18:09:39.273Z,10.45
2022-08-28T18:12:07.113Z,5.95
2022-08-28T18:14:40.066Z,13.02
2022-08-28T18:17:09.174Z,14.13
2022-08-28T18:19:37.369Z,17.48
2022-08-28T18:22:04.954Z,12.57
2022-08-28T18:24:32.130Z,13.80
2022-08-28T18:26:59.523Z,14.02
2022-08-28T18:29:27.666Z,13.13
2022-08-28T18:31:54.999Z,12.80
2022-08-28T18:34:22.421Z,12.80
2022-08-28T18:36:49.825Z,15.60
2022-08-28T18:39:29.535Z,13.20
2022-08-28T18:41:58.495Z,19.95
2022-08-28T18:44:25.679Z,11.88
2022-08-28T18:46:53.015Z,10.15
2022-08-28T18:49:20.519Z,9.18
2022-08-28T18:51:47.878Z,11.60
2022-08-28T18:54:20.133Z,10.68
2022-08-28T18:56:50.369Z,7.32
2022-08-28T18:59:19.553Z,8.05
2022-08-28T19:01:50.180Z,8.70
2022-08-28T19:04:17.430Z,7.80
2022-08-28T19:06:44.943Z,11.45
2022-08-28T19:09:20.523Z,10.02
2022-08-28T19:11:50.025Z,14.27
2022-08-28T19:14:17.342Z,13.05
2022-08-28T19:16:44.941Z,9.80
2022-08-28T19:19:12.634Z,8.98
2022-08-28T19:21:39.982Z,8.80
2022-08-28T19:24:07.433Z,7.72
2022-08-28T19:26:37.535Z,5.40
2022-08-28T19:29:06.182Z,4.80
2022-08-28T19:31:36.344Z,4.50
2022-08-28T19:34:04.797Z,4.78
2022-08-28T19:36:33.897Z,10.80
2022-08-28T19:39:01.625Z,5.70
2022-08-28T19:41:30.635Z,12.20
2022-08-28T19:43:59.740Z,5.90
2022-08-28T19:46:29.358Z,3.58
2022-08-28T19:48:58.159Z,5.90
2022-08-28T19:51:27.948Z,5.85
2022-08-28T19:53:58.935Z,5.85
2022-08-28T19:56:28.716Z,7.30
2022-08-28T19:58:59.639Z,14.40
2022-08-28T20:01:30.199Z,6.63
2022-08-28T20:03:59.727Z,13.25
2022-08-28T20:06:27.973Z,8.23
2022-08-28T20:08:55.761Z,4.28
2022-08-28T20:11:30.664Z,3.83
2022-08-28T20:14:04.627Z,3.10
2022-08-28T20:16:37.443Z,4.25
2022-08-28T20:19:08.198Z,6.07
2022-08-28T20:21:39.086Z,5.50
2022-08-28T20:24:11.934Z,7.05
2022-08-28T20:26:39.536Z,3.15
2022-08-28T20:29:11.142Z,5.43
2022-08-28T20:34:12.461Z,12.20
2022-08-28T20:36:41.328Z,3.10
2022-08-28T20:39:14.114Z,3.40
2022-08-28T20:41:43.852Z,3.55
2022-08-28T20:44:13.691Z,4.50
2022-08-28T20:46:48.972Z,4.38
2022-08-28T20:49:22.529Z,5.97
2022-08-28T20:51:54.306Z,9.90
2022-08-28T20:54:34.832Z,3.25
2022-08-28T20:57:06.003Z,5.30
2022-08-28T20:59:39.991Z,5.57
2022-08-28T21:02:40.156Z,7.53
2022-08-28T21:05:08.664Z,7.50
2022-08-28T21:07:36.011Z,10.38
2022-08-28T21:10:07.704Z,3.80
2022-08-28T21:12:37.290Z,2.85
2022-08-28T21:15:09.792Z,3.22
2022-08-28T21:17:37.139Z,4.35
2022-08-28T21:20:14.915Z,4.07
2022-08-28T21:22:42.665Z,4.15
2022-08-28T21:25:11.632Z,4.75
2022-08-28T21:27:42.124Z,3.67
2022-08-28T21:30:13.157Z,4.80
2022-08-28T21:35:11.279Z,2.13
2022-08-28T21:37:39.909Z,2.60
2022-08-28T21:40:12.192Z,2.17
2022-08-28T21:42:40.100Z,2.08
2022-08-28T21:45:11.848Z,2.38
2022-08-28T21:47:39.858Z,3.17
2022-08-28T21:50:08.387Z,2.80
2022-08-28T21:52:35.521Z,3.85
2022-08-28T21:55:10.128Z,3.53
2022-08-28T21:57:38.287Z,1.70
2022-08-28T22:00:09.889Z,4.50
2022-08-28T22:02:37.066Z,2.67
2022-08-28T22:05:04.997Z,1.95
2022-08-28T22:07:32.364Z,2.95
2022-08-28T22:09:59.461Z,2.35
2022-08-28T22:12:31.032Z,1.75
2022-08-28T22:15:00.981Z,1.60
2022-08-28T22:17:28.015Z,1.95
2022-08-28T22:19:55.426Z,1.42
2022-08-28T22:22:41.106Z,1.63
2022-08-28T22:25:08.495Z,2.42
2022-08-28T22:27:35.676Z,2.17
2022-08-28T22:30:02.589Z,1.55
2022-08-28T22:32:29.637Z,1.80
2022-08-28T22:34:56.652Z,2.80
2022-08-28T22:37:23.969Z,1.65
2022-08-28T22:39:50.899Z,2.83
2022-08-28T22:42:18.406Z,1.77
2022-08-28T22:44:46.607Z,2.38
2022-08-28T22:47:14.105Z,1.60
2022-08-28T22:49:41.033Z,1.83
2022-08-28T22:52:11.122Z,1.63
2022-08-28T22:54:38.677Z,2.00
2022-08-28T22:57:06.219Z,4.15
2022-08-28T22:59:34.578Z,1.63
2022-08-28T23:02:03.536Z,3.25
2022-08-28T23:04:31.375Z,2.97
2022-08-28T23:06:58.500Z,2.80
2022-08-28T23:09:25.458Z,2.22
2022-08-28T23:11:52.339Z,2.30
2022-08-28T23:14:19.710Z,3.30
2022-08-28T23:16:46.898Z,1.65
2022-08-28T23:19:16.557Z,1.35
2022-08-28T23:21:44.473Z,1.65
2022-08-28T23:24:14.013Z,1.70
2022-08-28T23:26:41.805Z,1.75
2022-08-28T23:29:10.107Z,2.35
2022-08-28T23:31:38.275Z,1.90
2022-08-28T23:34:05.653Z,1.52
2022-08-28T23:36:35.527Z,2.50
2022-08-28T23:39:02.933Z,1.87
2022-08-28T23:41:30.911Z,2.22
2022-08-28T23:43:57.776Z,1.48
2022-08-28T23:46:25.266Z,1.42
2022-08-28T23:48:52.708Z,2.08
2022-08-28T23:51:19.953Z,2.83
2022-08-28T23:53:47.659Z,1.63
2022-08-28T23:56:14.732Z,1.10
2022-08-28T23:58:43.351Z,1.60
